Impacts TAF Board INFO
FOR SITUATIONAL AWARENESS. NOT TO BE USED FOR FLIGHT PLANNING PURPOSES.
IDs:

KLAS - Las Vegas/McCarran I, NV, US

Issued at 0204 UTC 20 Aug 2018
Updated at 0331 UTC 20 Aug 2018
Potential Impact None Slight Moderate High
Time0256Z 20/04Z 20/05Z 20/06Z 20/07Z 20/08Z 20/09Z 20/10Z 20/11Z 20/12Z 20/13Z 20/14Z 20/15Z 20/16Z>>
Type OBS PRVL PRVL PRVL PRVL PRVL PRVL PRVL PRVL PRVL PRVL PRVL PRVL PRVL
VIS 10 >6 >6 >6 >6 >6 >6 >6 >6 >6 >6 >6 >6 >6
CIG -- -- -- -- -- -- -- -- -- -- -- -- -- --
Cover SCT FEW FEW FEW SKC SKC SKC SKC SKC SKC SKC SKC SKC SKC
FltCat VFR VFR VFR VFR VFR VFR VFR VFR VFR VFR VFR VFR VFR VFR
WX -- -- -- -- -- -- -- -- -- -- -- -- -- --
WDir 230 210 210 210 210 210 210 210 210 210 210 210 210 210
WSpd 7 9 9 9 9 9 9 9 9 9 9 9 9 9
WGst -- -- -- -- -- -- -- -- -- -- -- -- -- --

Raw TAF
KLAS 200204Z 2002/2106 21009KT P6SM FEW140
  FM200700 21009KT P6SM SKC
  FM201800 20014G22KT P6SM FEW140
  FM202100 20019G29KT P6SM SCT140


Raw METAR
KLAS 200256Z 23007KT 10SM SCT140 41/07 A2978 RMK AO2 SLP050 T04060072 55002
KLAS 200156Z 23008KT 10SM FEW140 42/07 A2977 RMK AO2 SLP047 T04170072
KLAS 200056Z VRB03KT 10SM FEW140 42/07 A2977 RMK AO2 SLP047 T04220067

METAR Board
Radar Display
Forecast Discussion

FOR SITUATIONAL AWARENESS. NOT TO BE USED FOR FLIGHT PLANNING PURPOSES.